Time;durP1;ratioP1;P1;durP2;ratioP2;P2;SDS_P1;SDS_P2;PMS_P1;PMS_P2;Temp;Humidity;BMP_temperature;BMP_pressure;BME280_temperature;BME280_humidity;BME280_pressure;Samples;Min_cycle;Max_cycle;Signal;HPM_P1;HPM_P2
2023/10/22 00:00:09;;;;;;;2.90;1.45;;;;;;;17.65;43.92;99380.69;681091;29;1410;-96
2023/10/22 00:00:33;;;;;;;2.55;1.50;;;;;;;17.66;43.90;99371.84;678045;29;1270;-95
2023/10/22 00:00:54;;;;;;;2.53;1.50;;;;;;;17.65;43.71;99383.31;675255;29;1203;-95
2023/10/22 00:01:14;;;;;;;2.40;1.40;;;;;;;17.71;43.84;99382.28;672689;29;1262;-94
2023/10/22 00:01:36;;;;;;;2.57;1.40;;;;;;;17.62;43.78;99370.19;670594;29;1211;-95
2023/10/22 00:02:12;;;;;;;2.47;1.30;;;;;;;17.74;43.76;99380.44;680913;29;1325;-95
2023/10/22 00:02:35;;;;;;;2.70;1.40;;;;;;;17.65;43.63;99362.22;679574;29;1353;-96
2023/10/22 00:02:56;;;;;;;3.10;1.50;;;;;;;17.66;43.87;99371.84;676152;29;1298;-96
2023/10/22 00:03:17;;;;;;;3.08;1.40;;;;;;;17.74;43.67;99383.09;676345;29;1445;-93
2023/10/22 00:03:38;;;;;;;3.13;1.38;;;;;;;17.79;43.67;99381.22;678567;29;1425;-96
2023/10/22 00:03:59;;;;;;;2.75;1.23;;;;;;;17.81;43.67;99379.41;673494;29;1168;-95
2023/10/22 00:04:20;;;;;;;3.20;1.40;;;;;;;17.73;43.53;99369.94;676289;29;1140;-96
2023/10/22 00:04:48;;;;;;;5.20;1.42;;;;;;;17.74;43.79;99354.06;676525;29;1450;-96
2023/10/22 00:05:10;;;;;;;8.00;1.60;;;;;;;17.74;43.58;99361.97;674993;29;1215;-96
2023/10/22 00:05:33;;;;;;;5.80;1.50;;;;;;;17.91;44.06;99387.09;678685;29;1284;-96
2023/10/22 00:05:58;;;;;;;5.15;1.42;;;;;;;17.85;43.55;99358.22;679965;29;1233;-95
2023/10/22 00:06:19;;;;;;;3.88;1.30;;;;;;;17.91;43.45;99371.25;684374;28;1210;-96
2023/10/22 00:06:42;;;;;;;2.80;1.40;;;;;;;17.90;43.44;99361.59;676555;29;1377;-96
2023/10/22 00:07:09;;;;;;;2.55;1.40;;;;;;;17.86;43.54;99360.81;678598;29;1271;-96
2023/10/22 00:07:31;;;;;;;2.35;1.50;;;;;;;17.97;43.30;99372.88;675906;29;1233;-96
2023/10/22 00:07:51;;;;;;;2.13;1.50;;;;;;;17.94;43.48;99373.81;675639;29;1240;-95
2023/10/22 00:08:18;;;;;;;2.70;1.50;;;;;;;17.94;43.27;99364.13;681858;29;1169;-96
2023/10/22 00:08:40;;;;;;;3.72;1.70;;;;;;;17.95;43.31;99365.00;676354;29;1411;-95
2023/10/22 00:09:01;;;;;;;3.30;1.50;;;;;;;17.99;43.46;99376.31;677156;29;1311;-94
2023/10/22 00:09:50;;;;;;;3.30;1.33;;;;;;;18.12;43.15;99375.13;681253;29;1237;-95
2023/10/22 00:10:13;;;;;;;3.65;1.50;;;;;;;18.15;43.00;99372.44;675056;29;1310;-95
2023/10/22 00:10:34;;;;;;;4.30;1.60;;;;;;;18.06;43.08;99378.78;678580;29;1907;-96
2023/10/22 00:10:56;;;;;;;4.55;1.55;;;;;;;18.09;43.17;99389.25;678472;29;1236;-95
2023/10/22 00:11:16;;;;;;;2.92;1.35;;;;;;;18.04;43.25;99375.34;678750;29;1377;-96
2023/10/22 00:11:37;;;;;;;3.08;1.40;;;;;;;18.01;43.17;99387.72;678400;29;1160;-95
2023/10/22 00:12:01;;;;;;;3.00;1.50;;;;;;;18.07;43.19;99372.59;675744;29;1244;-95
2023/10/22 00:12:21;;;;;;;3.17;1.60;;;;;;;18.08;43.17;99365.56;677345;29;1193;-96
2023/10/22 00:12:42;;;;;;;3.17;1.63;;;;;;;18.13;43.04;99368.94;673765;29;1154;-96
2023/10/22 00:13:03;;;;;;;3.88;1.70;;;;;;;18.17;43.13;99373.28;675839;29;1053;-96
2023/10/22 00:13:24;;;;;;;3.67;1.60;;;;;;;18.13;43.08;99368.06;682563;29;1306;-96
2023/10/22 00:15:29;;;;;;;5.80;1.70;;;;;;;18.24;42.90;99381.88;679625;29;1431;-95
2023/10/22 00:15:59;;;;;;;5.78;1.60;;;;;;;18.27;42.75;99373.91;679826;29;1269;-96
2023/10/22 00:16:20;;;;;;;2.58;1.35;;;;;;;18.24;42.45;99379.25;681253;29;1262;-96
2023/10/22 00:16:42;;;;;;;2.45;1.20;;;;;;;18.29;42.54;99394.97;675219;29;1299;-95
2023/10/22 00:17:05;;;;;;;2.40;1.23;;;;;;;18.29;42.70;99380.00;677873;29;1285;-96
2023/10/22 00:17:41;;;;;;;2.85;1.55;;;;;;;18.31;42.70;99387.88;677444;29;1287;-96
2023/10/22 00:18:05;;;;;;;2.90;1.65;;;;;;;18.26;42.49;99380.06;679456;29;1305;-96
2023/10/22 00:18:26;;;;;;;5.05;1.60;;;;;;;18.35;42.45;99390.41;679281;29;1261;-96
2023/10/22 00:18:54;;;;;;;5.60;1.40;;;;;;;18.32;42.48;99387.84;673345;29;1353;-95
2023/10/22 00:19:14;;;;;;;5.70;1.45;;;;;;;18.30;42.59;99384.38;675353;29;1243;-96
2023/10/22 00:19:35;;;;;;;3.40;1.70;;;;;;;18.34;42.51;99388.66;676986;29;1760;-95
2023/10/22 00:19:56;;;;;;;3.10;1.77;;;;;;;18.31;42.60;99394.03;673963;29;1479;-96
2023/10/22 00:20:23;;;;;;;2.50;1.60;;;;;;;18.36;42.56;99397.41;675557;29;1214;-96
2023/10/22 00:20:53;;;;;;;6.85;1.70;;;;;;;18.25;42.74;99388.03;672325;29;1273;-96
2023/10/22 00:21:14;;;;;;;7.78;1.70;;;;;;;18.19;42.73;99382.00;676901;29;1376;-96
2023/10/22 00:21:35;;;;;;;5.53;1.70;;;;;;;18.21;42.68;99389.91;678051;29;1155;-96
2023/10/22 00:21:59;;;;;;;4.47;1.50;;;;;;;18.23;42.87;99403.91;680778;29;1196;-95
2023/10/22 00:22:20;;;;;;;3.67;1.45;;;;;;;18.22;42.74;99400.41;676197;29;1408;-96
2023/10/22 00:22:42;;;;;;;3.00;1.33;;;;;;;18.22;43.03;99410.09;672874;29;1405;-95
2023/10/22 00:23:04;;;;;;;3.00;1.42;;;;;;;18.16;42.75;99381.22;673553;29;1353;-96
2023/10/22 00:23:27;;;;;;;2.80;1.27;;;;;;;18.18;42.53;99380.28;678390;29;1378;-96
2023/10/22 00:23:51;;;;;;;2.85;1.15;;;;;;;18.27;42.68;99402.94;674776;29;1302;-96
2023/10/22 00:24:12;;;;;;;2.90;1.10;;;;;;;18.37;42.80;99395.63;670946;29;1245;-95
2023/10/22 00:24:33;;;;;;;2.50;1.30;;;;;;;18.35;42.64;99395.69;678926;29;1125;-95
2023/10/22 00:24:53;;;;;;;2.13;1.23;;;;;;;18.25;42.38;99388.03;678280;29;1151;-94
2023/10/22 00:25:14;;;;;;;3.20;1.40;;;;;;;18.23;42.60;99388.06;673879;29;1216;-96
2023/10/22 00:25:36;;;;;;;3.17;1.30;;;;;;;18.32;42.52;99403.66;671641;29;961;-96
2023/10/22 00:25:57;;;;;;;3.70;1.40;;;;;;;18.23;42.78;99385.44;676388;29;1470;-96
2023/10/22 00:26:19;;;;;;;5.20;1.40;;;;;;;18.19;42.59;99383.81;673744;29;1435;-96
2023/10/22 00:26:46;;;;;;;5.25;1.50;;;;;;;18.32;42.87;99401.03;673214;29;1348;-96
2023/10/22 00:27:08;;;;;;;5.70;1.30;;;;;;;18.23;42.64;99388.06;672833;29;1635;-94
2023/10/22 00:27:32;;;;;;;5.63;1.20;;;;;;;18.14;42.86;99391.81;673158;29;1076;-96
2023/10/22 00:27:53;;;;;;;6.22;1.30;;;;;;;18.22;42.92;99378.44;677799;29;1222;-96
2023/10/22 00:28:14;;;;;;;3.78;1.40;;;;;;;18.17;42.80;99375.03;676988;29;1178;-96
2023/10/22 00:28:38;;;;;;;3.20;1.40;;;;;;;18.32;42.86;99402.81;678319;29;1460;-96
2023/10/22 00:28:59;;;;;;;2.60;1.40;;;;;;;18.38;42.90;99399.16;675857;29;1233;-95
2023/10/22 00:29:21;;;;;;;3.13;1.52;;;;;;;18.24;42.74;99397.72;673035;29;1323;-95
2023/10/22 00:29:44;;;;;;;5.63;1.77;;;;;;;18.33;42.70;99401.91;673927;29;1220;-96
2023/10/22 00:30:06;;;;;;;5.93;1.70;;;;;;;18.32;42.50;99385.19;678982;29;1312;-96
2023/10/22 00:30:26;;;;;;;6.47;1.70;;;;;;;18.38;42.69;99404.44;673822;29;1899;-96
2023/10/22 00:30:49;;;;;;;4.30;1.50;;;;;;;18.30;42.63;99397.56;674524;29;1108;-95
2023/10/22 00:31:12;;;;;;;4.65;1.63;;;;;;;18.44;42.45;99404.28;675760;29;1214;-96
2023/10/22 00:31:37;;;;;;;3.42;1.60;;;;;;;18.25;42.60;99403.88;677286;29;1123;-95
2023/10/22 00:31:58;;;;;;;3.03;1.40;;;;;;;18.40;42.70;99413.16;673085;29;1201;-95
2023/10/22 00:32:19;;;;;;;2.70;1.30;;;;;;;18.42;42.52;99400.78;667985;29;1287;-94
2023/10/22 00:32:41;;;;;;;2.58;1.23;;;;;;;18.35;42.39;99395.69;677058;29;1370;-96
2023/10/22 00:33:02;;;;;;;3.10;1.40;;;;;;;18.44;42.31;99396.34;676025;29;1265;-96
2023/10/22 00:33:23;;;;;;;2.92;1.33;;;;;;;18.50;42.25;99404.09;672396;29;1161;-96
2023/10/22 00:33:51;;;;;;;3.42;1.50;;;;;;;18.44;42.20;99378.72;672879;29;1257;-96
2023/10/22 00:34:18;;;;;;;3.40;1.70;;;;;;;18.45;42.39;99404.22;678586;29;1307;-96
2023/10/22 00:34:39;;;;;;;3.45;1.73;;;;;;;18.42;42.15;99400.78;681239;29;1429;-94
2023/10/22 00:35:02;;;;;;;3.60;1.80;;;;;;;18.49;42.20;99397.06;678094;29;1223;-95
2023/10/22 00:35:27;;;;;;;3.40;1.77;;;;;;;18.53;42.17;99392.56;675894;29;1246;-96
2023/10/22 00:35:58;;;;;;;5.40;1.65;;;;;;;18.46;42.53;99398.06;678195;29;1450;-96
2023/10/22 00:36:27;;;;;;;6.43;1.50;;;;;;;18.43;42.16;99389.34;677854;29;1258;-96
2023/10/22 00:36:48;;;;;;;6.07;1.70;;;;;;;18.48;42.10;99392.72;677134;29;1276;-96
2023/10/22 00:37:09;;;;;;;4.50;1.50;;;;;;;18.55;42.06;99401.34;675993;29;1237;-96
2023/10/22 00:37:30;;;;;;;3.75;1.38;;;;;;;18.55;42.04;99383.72;673377;29;1377;-95
2023/10/22 00:37:52;;;;;;;2.35;1.23;;;;;;;18.41;42.17;99383.22;678435;29;1195;-96
2023/10/22 00:38:14;;;;;;;5.60;1.40;;;;;;;18.53;42.14;99390.81;681936;29;1366;-96
2023/10/22 00:38:37;;;;;;;6.50;1.60;;;;;;;18.52;42.00;99398.78;675834;29;1310;-96
2023/10/22 00:38:57;;;;;;;6.38;1.70;;;;;;;18.52;42.04;99407.56;672943;29;1226;-96
2023/10/22 00:39:18;;;;;;;3.38;1.60;;;;;;;18.49;42.10;99392.66;675484;29;1258;-96
2023/10/22 00:39:43;;;;;;;3.17;1.50;;;;;;;18.58;42.16;99410.06;675867;29;1454;-95
2023/10/22 00:40:09;;;;;;;2.90;1.30;;;;;;;18.47;42.00;99383.94;680788;29;1153;-96
2023/10/22 00:40:32;;;;;;;3.08;1.10;;;;;;;18.52;41.89;99401.41;677608;29;1464;-94
2023/10/22 00:40:54;;;;;;;3.65;1.27;;;;;;;18.55;42.06;99410.13;675321;29;1353;-96
2023/10/22 00:41:14;;;;;;;4.10;1.30;;;;;;;18.61;41.92;99402.03;678613;29;1194;-96
2023/10/22 00:41:35;;;;;;;3.50;1.30;;;;;;;18.62;41.98;99393.19;680120;29;1135;-96
2023/10/22 00:41:56;;;;;;;2.75;1.30;;;;;;;18.56;41.95;99381.94;680549;29;1262;-95
2023/10/22 00:42:20;;;;;;;3.13;1.40;;;;;;;18.61;42.11;99396.75;680382;29;1210;-94
2023/10/22 00:42:42;;;;;;;2.70;1.20;;;;;;;18.63;42.15;99402.84;673359;29;1345;-95
2023/10/22 00:43:05;;;;;;;2.80;1.20;;;;;;;18.60;42.01;99399.44;673457;29;1362;-96
2023/10/22 00:43:26;;;;;;;2.95;1.33;;;;;;;18.59;41.94;99403.88;680249;29;1234;-95
2023/10/22 00:43:47;;;;;;;5.20;1.60;;;;;;;18.53;42.03;99392.56;680706;29;1341;-96
2023/10/22 00:44:09;;;;;;;4.70;1.58;;;;;;;18.48;42.24;99400.63;677279;29;1210;-96
2023/10/22 00:44:30;;;;;;;4.03;1.50;;;;;;;18.55;42.14;99401.34;678073;29;1369;-94
2023/10/22 00:44:51;;;;;;;2.50;1.48;;;;;;;18.56;42.27;99395.16;680316;29;1346;-93
2023/10/22 00:45:12;;;;;;;2.70;1.50;;;;;;;18.50;42.46;99396.16;678208;29;1344;-96
2023/10/22 00:45:37;;;;;;;2.75;1.40;;;;;;;18.42;42.43;99400.78;675799;29;1210;-93
2023/10/22 00:46:01;;;;;;;2.97;1.30;;;;;;;18.40;42.52;99376.19;678106;29;1308;-95
2023/10/22 00:46:29;;;;;;;3.20;1.20;;;;;;;18.58;42.40;99412.69;678409;29;1270;-95
2023/10/22 00:46:52;;;;;;;2.40;1.10;;;;;;;18.42;42.52;99398.16;676278;29;1254;-96
2023/10/22 00:47:17;;;;;;;3.00;1.30;;;;;;;18.42;42.55;99379.66;683602;28;1115;-96
2023/10/22 00:47:42;;;;;;;3.42;1.50;;;;;;;18.62;42.36;99418.75;678567;29;1246;-96
2023/10/22 00:48:09;;;;;;;3.03;1.50;;;;;;;18.48;42.22;99395.34;676253;29;1317;-96
2023/10/22 00:48:32;;;;;;;2.60;1.30;;;;;;;18.50;42.38;99393.53;675673;29;1299;-96
2023/10/22 00:48:55;;;;;;;2.80;1.33;;;;;;;18.54;42.50;99411.03;675686;29;1621;-96
2023/10/22 00:49:20;;;;;;;2.53;1.20;;;;;;;18.55;42.36;99402.19;675209;29;1377;-96
2023/10/22 00:49:42;;;;;;;2.67;1.30;;;;;;;18.52;42.28;99404.94;675220;29;1252;-96
2023/10/22 00:50:08;;;;;;;2.25;1.25;;;;;;;18.51;42.42;99387.34;678254;29;1257;-96
2023/10/22 00:50:31;;;;;;;2.03;1.13;;;;;;;18.49;42.28;99384.75;681064;29;1907;-96
2023/10/22 00:50:55;;;;;;;2.40;1.20;;;;;;;18.50;42.49;99398.81;679250;29;1430;-95
2023/10/22 00:51:16;;;;;;;3.20;1.50;;;;;;;18.39;42.54;99385.03;680858;29;1336;-95
2023/10/22 00:51:38;;;;;;;3.28;1.60;;;;;;;18.43;42.64;99402.53;680100;29;1768;-94
2023/10/22 00:52:00;;;;;;;4.00;1.73;;;;;;;18.44;42.56;99391.91;678418;29;1116;-96
2023/10/22 00:52:22;;;;;;;5.70;1.80;;;;;;;18.35;42.71;99390.41;672806;29;1479;-95
2023/10/22 00:52:43;;;;;;;6.60;1.80;;;;;;;18.46;42.68;99402.44;675994;29;1428;-94
2023/10/22 00:53:04;;;;;;;5.90;1.75;;;;;;;18.40;42.68;99384.13;678176;29;1404;-95
2023/10/22 00:53:47;;;;;;;4.35;1.60;;;;;;;18.46;42.61;99399.81;676571;29;1201;-96
2023/10/22 00:54:09;;;;;;;2.80;1.40;;;;;;;18.36;42.58;99392.13;678340;29;1369;-96
2023/10/22 00:54:30;;;;;;;2.78;1.42;;;;;;;18.40;42.58;99392.91;673207;29;1307;-96
2023/10/22 00:54:52;;;;;;;2.70;1.50;;;;;;;18.48;42.60;99403.28;675495;29;1191;-94
2023/10/22 00:55:14;;;;;;;3.25;1.70;;;;;;;18.53;42.56;99401.38;678254;29;1219;-95
2023/10/22 00:55:45;;;;;;;3.65;1.92;;;;;;;18.41;42.46;99388.50;676009;29;1309;-96
2023/10/22 00:56:17;;;;;;;2.80;1.50;;;;;;;18.44;42.69;99399.00;671937;29;1342;-96
2023/10/22 00:56:39;;;;;;;2.90;1.20;;;;;;;18.32;42.55;99379.91;672593;29;1036;-96
2023/10/22 00:57:03;;;;;;;3.85;1.42;;;;;;;18.35;42.71;99392.16;678070;29;1349;-95
2023/10/22 00:57:25;;;;;;;3.83;1.50;;;;;;;18.35;42.77;99387.75;674932;29;1408;-94
2023/10/22 00:57:46;;;;;;;5.43;1.50;;;;;;;18.46;42.69;99405.09;673061;29;1338;-96
2023/10/22 00:58:09;;;;;;;4.50;1.40;;;;;;;18.32;42.86;99387.84;671265;29;1379;-96
2023/10/22 00:58:34;;;;;;;4.82;1.60;;;;;;;18.30;42.83;99389.66;670769;29;1294;-95
2023/10/22 00:58:56;;;;;;;2.65;1.30;;;;;;;18.34;42.74;99388.66;673115;29;1386;-96
2023/10/22 00:59:21;;;;;;;2.50;1.10;;;;;;;18.35;42.62;99390.41;678352;29;1583;-96
2023/10/22 00:59:51;;;;;;;2.30;1.20;;;;;;;18.47;42.55;99406.81;678304;29;1234;-96
2023/10/22 01:00:13;;;;;;;5.40;1.40;;;;;;;18.41;42.81;99409.63;675290;29;1353;-93
2023/10/22 01:00:35;;;;;;;5.85;1.52;;;;;;;18.46;42.80;99411.25;674925;29;1328;-95
2023/10/22 01:00:57;;;;;;;2.72;1.30;;;;;;;18.35;42.73;99390.41;674990;29;1491;-94
2023/10/22 01:01:18;;;;;;;2.63;1.25;;;;;;;18.49;42.79;99412.94;674958;29;1200;-94
2023/10/22 01:01:39;;;;;;;3.03;1.38;;;;;;;18.47;42.82;99409.47;672666;29;1210;-94
2023/10/22 01:02:00;;;;;;;4.00;1.52;;;;;;;18.31;42.89;99394.03;677657;29;1483;-96
2023/10/22 01:02:22;;;;;;;3.80;1.60;;;;;;;18.45;42.90;99416.56;675033;29;1232;-95
2023/10/22 01:02:44;;;;;;;2.88;1.50;;;;;;;18.42;42.77;99406.06;675373;29;1105;-95
2023/10/22 01:03:06;;;;;;;3.03;1.40;;;;;;;18.55;42.64;99422.47;673476;29;1327;-96
2023/10/22 01:03:27;;;;;;;4.80;1.30;;;;;;;18.45;42.50;99400.72;677942;29;1820;-95
2023/10/22 01:03:49;;;;;;;4.57;1.30;;;;;;;18.45;42.71;99414.78;672866;29;1195;-96
2023/10/22 01:04:12;;;;;;;6.13;1.40;;;;;;;18.38;42.81;99397.34;671031;29;1219;-95
2023/10/22 01:04:33;;;;;;;5.95;1.60;;;;;;;18.33;42.72;99389.56;675571;29;1257;-96
2023/10/22 01:04:54;;;;;;;5.97;1.60;;;;;;;18.41;42.78;99409.63;673666;29;1212;-95
2023/10/22 01:05:16;;;;;;;3.90;1.50;;;;;;;18.35;42.76;99406.25;670244;29;1219;-95
2023/10/22 01:05:38;;;;;;;2.90;1.40;;;;;;;18.49;42.56;99426.13;678885;29;1254;-95
2023/10/22 01:05:59;;;;;;;3.50;1.38;;;;;;;18.38;42.54;99394.72;680858;29;1096;-96
2023/10/22 01:06:21;;;;;;;3.70;1.50;;;;;;;18.47;42.51;99412.09;675861;29;1413;-96
2023/10/22 01:06:42;;;;;;;3.60;1.50;;;;;;;18.52;42.48;99407.56;677877;29;1266;-94
2023/10/22 01:07:05;;;;;;;2.80;1.40;;;;;;;18.59;42.43;99416.19;683035;28;1768;-96
2023/10/22 01:07:30;;;;;;;2.40;1.30;;;;;;;18.35;42.30;99400.97;677496;29;1433;-96
2023/10/22 01:07:52;;;;;;;3.40;1.50;;;;;;;18.47;42.50;99406.81;678156;29;1680;-96
2023/10/22 01:08:17;;;;;;;3.00;1.40;;;;;;;18.46;42.48;99397.16;676203;29;1423;-96
2023/10/22 01:08:41;;;;;;;2.75;1.20;;;;;;;18.53;42.67;99409.31;678136;29;1219;-96
2023/10/22 01:09:03;;;;;;;2.90;1.10;;;;;;;18.48;42.56;99411.19;678555;29;1440;-94
2023/10/22 01:09:24;;;;;;;3.00;1.17;;;;;;;18.49;42.47;99394.44;677666;29;1342;-95
2023/10/22 01:09:47;;;;;;;13.80;1.40;;;;;;;18.58;42.60;99417.09;677913;29;1229;-96
2023/10/22 01:10:09;;;;;;;13.63;1.40;;;;;;;18.51;42.54;99421.69;675241;29;1239;-96
2023/10/22 01:10:30;;;;;;;8.30;1.38;;;;;;;18.46;42.50;99408.63;672635;29;1923;-95
2023/10/22 01:10:51;;;;;;;3.20;1.40;;;;;;;18.41;42.67;99404.34;675118;29;1337;-96
2023/10/22 01:11:12;;;;;;;3.25;1.40;;;;;;;18.42;42.64;99406.94;675664;29;1230;-95
2023/10/22 01:11:33;;;;;;;3.40;1.35;;;;;;;18.43;42.54;99407.81;675521;29;1277;-96
2023/10/22 01:12:03;;;;;;;2.78;1.35;;;;;;;18.39;42.80;99401.75;680835;29;1608;-96
2023/10/22 01:12:37;;;;;;;3.33;1.50;;;;;;;18.41;42.46;99399.06;675794;29;1291;-96
2023/10/22 01:13:00;;;;;;;4.30;1.40;;;;;;;18.41;42.60;99396.41;675522;29;1508;-96
2023/10/22 01:13:24;;;;;;;3.90;1.40;;;;;;;18.33;42.81;99399.28;673921;29;1325;-96
2023/10/22 01:13:51;;;;;;;2.03;1.20;;;;;;;18.33;42.61;99397.47;676451;29;1297;-96
2023/10/22 01:14:16;;;;;;;2.50;1.30;;;;;;;18.33;42.84;99401.91;678188;29;1201;-96
2023/10/22 01:14:37;;;;;;;2.35;1.30;;;;;;;18.41;42.72;99409.63;673212;29;1302;-96
2023/10/22 01:14:58;;;;;;;2.10;1.15;;;;;;;18.43;42.61;99405.19;674559;29;1215;-96
2023/10/22 01:15:20;;;;;;;1.80;1.10;;;;;;;18.40;42.66;99402.59;679659;29;1248;-96
2023/10/22 01:15:42;;;;;;;2.85;1.30;;;;;;;18.39;42.75;99400.88;678567;29;1203;-96
2023/10/22 01:16:06;;;;;;;3.10;1.40;;;;;;;18.48;42.76;99424.41;676174;29;1158;-96
2023/10/22 01:16:29;;;;;;;2.65;1.30;;;;;;;18.36;42.81;99400.06;676062;29;1346;-96
2023/10/22 01:16:54;;;;;;;2.75;1.30;;;;;;;18.42;42.64;99409.59;675641;29;1188;-95
2023/10/22 01:17:14;;;;;;;2.45;1.27;;;;;;;18.35;42.92;99414.19;680067;29;1225;-92
2023/10/22 01:17:35;;;;;;;8.53;1.40;;;;;;;18.33;42.66;99397.47;678468;29;1292;-96
2023/10/22 01:17:57;;;;;;;8.70;1.45;;;;;;;18.32;42.91;99401.03;675986;29;1116;-96
2023/10/22 01:18:19;;;;;;;9.00;1.50;;;;;;;18.30;42.73;99408.13;676518;29;1356;-96
2023/10/22 01:18:41;;;;;;;2.90;1.40;;;;;;;18.28;42.89;99414.34;676127;29;1338;-95
2023/10/22 01:19:02;;;;;;;3.75;1.50;;;;;;;18.40;42.71;99410.53;677816;29;1253;-96
2023/10/22 01:19:24;;;;;;;4.13;1.40;;;;;;;18.41;42.77;99414.91;678240;29;1173;-96
2023/10/22 01:19:44;;;;;;;3.67;1.50;;;;;;;18.35;42.89;99422.09;669591;29;1263;-96
2023/10/22 01:20:06;;;;;;;3.70;1.60;;;;;;;18.33;42.91;99413.31;671261;29;1278;-96
2023/10/22 01:20:32;;;;;;;3.05;1.60;;;;;;;18.31;42.79;99409.88;674916;29;1388;-96
2023/10/22 01:20:54;;;;;;;2.90;1.60;;;;;;;18.39;42.83;99419.38;681578;29;1189;-96
2023/10/22 01:21:17;;;;;;;3.05;1.58;;;;;;;18.37;42.72;99416.75;675143;29;1130;-95
2023/10/22 01:21:38;;;;;;;2.95;1.60;;;;;;;18.26;42.78;99416.19;678879;29;1286;-96
2023/10/22 01:21:59;;;;;;;2.85;1.45;;;;;;;18.34;42.87;99422.97;678191;29;1496;-96
2023/10/22 01:22:20;;;;;;;2.60;1.25;;;;;;;18.34;42.68;99425.63;675620;29;1370;-92
2023/10/22 01:22:40;;;;;;;2.43;1.20;;;;;;;18.28;42.84;99404.69;672080;29;1267;-92
2023/10/22 01:23:01;;;;;;;2.10;1.20;;;;;;;18.38;42.67;99420.28;675432;29;1296;-96
2023/10/22 01:23:23;;;;;;;2.58;1.20;;;;;;;18.46;42.69;99416.53;678347;29;1344;-94
2023/10/22 01:23:44;;;;;;;2.72;1.20;;;;;;;18.43;42.75;99427.16;678933;29;1357;-93
2023/10/22 01:24:07;;;;;;;2.92;1.30;;;;;;;18.34;42.72;99414.22;683058;28;1247;-93
2023/10/22 01:24:34;;;;;;;3.72;1.30;;;;;;;18.35;42.45;99416.81;676294;29;1247;-96
2023/10/22 01:24:55;;;;;;;3.45;1.35;;;;;;;18.43;42.46;99427.16;675836;29;1326;-92
2023/10/22 01:25:15;;;;;;;2.90;1.55;;;;;;;18.41;42.71;99422.81;680392;29;1182;-95
2023/10/22 01:29:04;;;;;;;6.68;1.50;;;;;;;18.53;42.41;99435.72;685357;28;1352;-96
2023/10/22 01:29:26;;;;;;;5.35;1.40;;;;;;;18.38;42.59;99412.34;678440;29;1266;-96
2023/10/22 01:29:48;;;;;;;3.88;1.40;;;;;;;18.49;42.56;99428.78;675801;29;1128;-95
2023/10/22 01:30:10;;;;;;;2.60;1.20;;;;;;;18.41;42.68;99409.63;675651;29;1478;-96
2023/10/22 01:30:31;;;;;;;2.83;1.20;;;;;;;18.46;42.39;99434.16;678016;29;1902;-96
2023/10/22 01:30:52;;;;;;;2.85;1.25;;;;;;;18.40;42.69;99421.97;674283;29;1175;-96
2023/10/22 01:31:16;;;;;;;2.72;1.33;;;;;;;18.48;42.58;99435.84;674731;29;1207;-94
2023/10/22 01:31:37;;;;;;;2.78;1.27;;;;;;;18.33;42.59;99409.84;676833;29;828;-95
2023/10/22 01:32:04;;;;;;;2.63;1.23;;;;;;;18.31;42.65;99419.56;675722;29;1258;-95
2023/10/22 01:32:31;;;;;;;3.08;1.50;;;;;;;18.46;42.58;99463.19;673056;29;1316;-95
2023/10/22 01:32:52;;;;;;;4.13;1.60;;;;;;;18.40;42.58;99421.97;675767;29;1350;-95
2023/10/22 01:33:13;;;;;;;3.95;1.55;;;;;;;18.39;42.56;99427.28;675618;29;1342;-94
2023/10/22 01:33:34;;;;;;;5.53;1.55;;;;;;;18.40;42.64;99415.81;671249;29;1908;-95
2023/10/22 01:33:56;;;;;;;4.50;1.50;;;;;;;18.47;42.42;99414.75;676418;29;1218;-96
2023/10/22 01:34:16;;;;;;;4.47;1.42;;;;;;;18.50;42.33;99418.16;675926;29;1221;-96
2023/10/22 01:34:50;;;;;;;2.90;1.30;;;;;;;18.47;42.54;99420.91;676682;29;1337;-96
2023/10/22 01:35:12;;;;;;;3.28;1.52;;;;;;;18.48;42.46;99443.78;675486;29;1436;-93
2023/10/22 01:35:35;;;;;;;3.20;1.60;;;;;;;18.43;42.58;99413.09;678617;29;1330;-96
2023/10/22 01:35:56;;;;;;;3.33;1.42;;;;;;;18.45;42.54;99424.50;676381;29;1324;-96
2023/10/22 01:36:18;;;;;;;3.50;1.50;;;;;;;18.50;42.45;99431.38;682660;29;1198;-96
2023/10/22 01:36:41;;;;;;;4.18;1.80;;;;;;;18.47;42.53;99430.59;680228;29;1396;-95
2023/10/22 01:37:06;;;;;;;4.18;1.80;;;;;;;18.36;42.52;99415.03;675291;29;1617;-96
2023/10/22 01:37:27;;;;;;;3.80;1.45;;;;;;;18.46;42.55;99421.81;677805;29;1119;-96
2023/10/22 01:38:03;;;;;;;3.65;1.40;;;;;;;18.55;42.42;99427.75;678015;29;1246;-96
2023/10/22 01:38:24;;;;;;;3.22;1.50;;;;;;;18.39;42.53;99437.84;672752;29;1238;-95
2023/10/22 01:38:47;;;;;;;6.90;1.50;;;;;;;18.46;42.42;99426.22;675368;29;1269;-96
2023/10/22 01:39:13;;;;;;;6.80;1.40;;;;;;;18.45;42.40;99413.94;678968;29;1272;-95
2023/10/22 01:39:33;;;;;;;6.18;1.33;;;;;;;18.46;42.18;99419.19;679623;29;1420;-96
2023/10/22 01:39:54;;;;;;;2.60;1.20;;;;;;;18.42;42.39;99412.22;680207;29;1514;-96
2023/10/22 01:40:20;;;;;;;2.67;1.20;;;;;;;18.42;42.43;99412.22;678317;29;1328;-96
2023/10/22 01:40:40;;;;;;;2.80;1.30;;;;;;;18.42;42.56;99425.44;676006;29;1373;-95
2023/10/22 01:41:11;;;;;;;2.83;1.38;;;;;;;18.48;42.49;99419.13;676345;29;961;-96
2023/10/22 01:41:32;;;;;;;2.95;1.40;;;;;;;18.36;42.72;99415.91;675200;29;1436;-96
2023/10/22 01:41:58;;;;;;;3.45;1.35;;;;;;;18.47;42.57;99430.59;676628;29;1294;-96
2023/10/22 01:42:21;;;;;;;5.07;1.60;;;;;;;18.41;42.58;99425.47;675487;29;1369;-96
2023/10/22 01:42:43;;;;;;;5.13;1.70;;;;;;;18.35;42.71;99435.31;677586;29;1396;-96
2023/10/22 01:43:08;;;;;;;3.50;1.52;;;;;;;18.44;42.47;99420.13;678610;29;1314;-96
2023/10/22 01:43:29;;;;;;;2.83;1.30;;;;;;;18.56;42.60;99438.28;677701;29;1278;-95
2023/10/22 01:43:50;;;;;;;2.70;1.30;;;;;;;18.46;42.51;99424.47;674608;29;1148;-95
2023/10/22 01:44:10;;;;;;;2.80;1.40;;;;;;;18.39;42.48;99424.66;678700;29;1227;-95
2023/10/22 01:44:31;;;;;;;3.03;1.50;;;;;;;18.39;42.48;99429.94;676156;29;1199;-96
2023/10/22 01:44:55;;;;;;;3.08;1.40;;;;;;;18.51;42.47;99432.25;675857;29;1381;-96
2023/10/22 01:45:16;;;;;;;2.70;1.30;;;;;;;18.47;42.67;99438.50;678264;29;1261;-95
2023/10/22 01:45:37;;;;;;;2.75;1.40;;;;;;;18.44;42.61;99428.91;678906;29;1429;-96
2023/10/22 01:45:58;;;;;;;2.72;1.52;;;;;;;18.42;42.63;99435.13;681090;29;1263;-93
2023/10/22 01:46:19;;;;;;;2.80;1.60;;;;;;;18.44;42.64;99423.63;681216;29;1217;-96
2023/10/22 01:46:40;;;;;;;5.22;1.70;;;;;;;18.45;42.69;99438.53;676266;29;1264;-96
2023/10/22 01:50:36;;;;;;;3.42;1.40;;;;;;;18.44;42.82;99443.91;678299;29;1075;-96
2023/10/22 01:50:58;;;;;;;2.60;1.23;;;;;;;18.32;42.97;99432.72;681965;29;1359;-96
2023/10/22 01:51:20;;;;;;;2.80;1.40;;;;;;;18.25;42.99;99439.06;678752;29;1181;-96
2023/10/22 01:51:44;;;;;;;2.88;1.40;;;;;;;18.47;42.78;99449.09;675853;29;1288;-96
2023/10/22 01:52:05;;;;;;;2.40;1.20;;;;;;;18.36;42.74;99437.03;675546;29;1284;-96
2023/10/22 01:52:36;;;;;;;2.35;1.20;;;;;;;18.40;42.84;99431.66;675559;29;1276;-96
2023/10/22 01:53:26;;;;;;;4.30;1.48;;;;;;;18.38;43.00;99431.69;667540;29;1292;-95
2023/10/22 01:53:46;;;;;;;4.43;1.53;;;;;;;18.34;42.99;99415.06;675732;29;1132;-95
2023/10/22 01:54:09;;;;;;;4.50;1.50;;;;;;;18.31;42.73;99431.00;672092;29;1278;-96
2023/10/22 01:54:30;;;;;;;3.50;1.48;;;;;;;18.32;42.95;99427.44;670232;29;1415;-95
2023/10/22 01:54:51;;;;;;;2.83;1.27;;;;;;;18.32;42.88;99440.63;675600;29;1315;-95
2023/10/22 01:55:12;;;;;;;2.70;1.30;;;;;;;18.36;43.08;99438.78;675395;29;1501;-95
2023/10/22 01:55:33;;;;;;;2.60;1.20;;;;;;;18.41;42.93;99451.88;672843;29;1423;-96
2023/10/22 01:55:54;;;;;;;3.00;1.23;;;;;;;18.35;43.00;99440.59;673131;29;1299;-96
2023/10/22 01:56:15;;;;;;;3.20;1.40;;;;;;;18.29;42.96;99443.38;670352;29;1248;-95
2023/10/22 01:56:40;;;;;;;3.08;1.45;;;;;;;18.38;43.13;99444.91;674137;29;1396;-96
2023/10/22 01:57:01;;;;;;;3.70;1.60;;;;;;;18.27;43.01;99434.63;675766;29;1757;-94
2023/10/22 01:57:33;;;;;;;3.60;1.50;;;;;;;18.30;43.03;99429.25;671286;29;1981;-94
2023/10/22 01:57:54;;;;;;;2.78;1.35;;;;;;;18.40;42.93;99450.13;675491;29;1371;-96
2023/10/22 01:58:16;;;;;;;2.55;1.20;;;;;;;18.32;42.89;99432.72;672803;29;1360;-95
2023/10/22 01:58:40;;;;;;;3.35;1.40;;;;;;;18.33;42.87;99436.25;675349;29;1397;-95
2023/10/22 01:59:02;;;;;;;3.60;1.40;;;;;;;18.42;43.27;99450.97;681679;29;1223;-96
2023/10/22 01:59:23;;;;;;;3.53;1.30;;;;;;;18.35;42.71;99427.38;676503;29;1280;-96
2023/10/22 01:59:44;;;;;;;3.40;1.27;;;;;;;18.39;42.81;99459.84;678135;29;1486;-94
2023/10/22 02:00:06;;;;;;;2.78;1.20;;;;;;;18.33;42.90;99433.59;675590;29;1361;-95